Time;durP1;ratioP1;P1;durP2;ratioP2;P2;SDS_P1;SDS_P2;PMS_P1;PMS_P2;Temp;Humidity;BMP_temperature;BMP_pressure;BME280_temperature;BME280_humidity;BME280_pressure;Samples;Min_cycle;Max_cycle;Signal;HPM_P1;HPM_P2
2023/03/21 00:00:16;;;;;;;12.40;6.68;;;;;;;;;;5024808;28;20112;-55
2023/03/21 00:02:41;;;;;;;9.70;6.20;;;;;;;;;;5022028;28;20407;-58
2023/03/21 00:05:06;;;;;;;9.85;5.55;;;;;;;;;;5025729;28;20045;-54
2023/03/21 00:07:32;;;;;;;10.50;6.00;;;;;;;;;;5024863;28;20021;-60
2023/03/21 00:09:57;;;;;;;9.48;6.53;;;;;;;;;;5025137;28;20037;-59
2023/03/21 00:12:22;;;;;;;9.13;5.97;;;;;;;;;;5023867;28;20164;-53
2023/03/21 00:14:47;;;;;;;8.75;6.22;;;;;;;;;;5020433;28;20048;-56
2023/03/21 00:17:14;;;;;;;15.20;6.70;;;;;;;;;;5021753;28;20033;-55
2023/03/21 00:19:40;;;;;;;8.20;5.75;;;;;;;;;;5023347;28;20041;-58
2023/03/21 00:22:06;;;;;;;11.30;5.80;;;;;;;;;;5023837;28;20036;-56
2023/03/21 00:24:31;;;;;;;8.90;5.97;;;;;;;;;;5022488;28;20123;-58
2023/03/21 00:26:56;;;;;;;11.85;6.25;;;;;;;;;;5022656;28;20576;-57
2023/03/21 00:29:22;;;;;;;8.38;5.50;;;;;;;;;;5022196;28;20893;-58
2023/03/21 00:31:47;;;;;;;8.00;5.45;;;;;;;;;;5024383;28;20036;-52
2023/03/21 00:34:12;;;;;;;8.32;5.45;;;;;;;;;;5021211;28;20037;-57
2023/03/21 00:36:38;;;;;;;9.35;5.32;;;;;;;;;;5021633;28;20038;-57
2023/03/21 00:39:05;;;;;;;;;;;;;;;;;;5023351;28;20044;-53
2023/03/21 00:41:31;;;;;;;9.25;5.40;;;;;;;;;;5019612;28;20386;-58
2023/03/21 00:43:57;;;;;;;7.82;5.40;;;;;;;;;;5025411;28;20440;-56
2023/03/21 00:46:22;;;;;;;10.10;5.18;;;;;;;;;;5024892;28;20099;-57
2023/03/21 00:48:47;;;;;;;9.68;6.25;;;;;;;;;;5026449;28;20029;-52
2023/03/21 00:51:17;;;;;;;8.18;5.25;;;;;;;;;;5023830;28;20037;-56
2023/03/21 00:53:42;;;;;;;10.38;5.18;;;;;;;;;;5020985;28;20033;-58
2023/03/21 00:56:08;;;;;;;11.90;5.65;;;;;;;;;;5023834;28;20402;-53
2023/03/21 00:58:33;;;;;;;11.80;6.10;;;;;;;;;;5028170;28;20068;-52
2023/03/21 01:01:01;;;;;;;14.43;5.55;;;;;;;;;;5021227;28;20032;-58
2023/03/21 01:03:28;;;;;;;9.35;5.80;;;;;;;;;;5031709;28;20033;-57
2023/03/21 01:06:05;;;;;;;9.00;5.40;;;;;;;;;;5023999;28;20111;-58
2023/03/21 01:08:36;;;;;;;12.50;5.55;;;;;;;;;;5020700;28;20042;-59
2023/03/21 01:11:06;;;;;;;9.63;5.60;;;;;;;;;;5036643;28;20484;-61
2023/03/21 01:13:31;;;;;;;8.98;5.20;;;;;;;;;;4998266;28;20087;-60
2023/03/21 01:15:57;;;;;;;10.23;5.43;;;;;;;;;;5023188;28;20092;-60
2023/03/21 01:18:25;;;;;;;9.70;5.45;;;;;;;;;;5020374;28;20544;-57
2023/03/21 01:20:51;;;;;;;10.60;5.55;;;;;;;;;;5019531;28;20678;-59
2023/03/21 01:23:16;;;;;;;8.35;5.05;;;;;;;;;;5021323;28;20040;-57
2023/03/21 01:25:42;;;;;;;8.98;5.15;;;;;;;;;;5023339;28;20042;-54
2023/03/21 01:28:07;;;;;;;8.73;5.00;;;;;;;;;;5017838;28;20673;-57
2023/03/21 01:30:33;;;;;;;11.35;4.60;;;;;;;;;;5021013;28;20436;-58
2023/03/21 01:33:00;;;;;;;7.38;4.25;;;;;;;;;;5028457;28;20034;-60
2023/03/21 01:35:25;;;;;;;7.70;4.25;;;;;;;;;;5013311;28;20102;-60
2023/03/21 01:37:51;;;;;;;8.63;5.10;;;;;;;;;;5021341;28;20040;-61
2023/03/21 01:40:21;;;;;;;10.50;4.85;;;;;;;;;;5020597;28;20322;-56
2023/03/21 01:42:48;;;;;;;7.97;5.20;;;;;;;;;;5021560;28;20029;-58
2023/03/21 01:45:32;;;;;;;9.52;5.40;;;;;;;;;;5027082;28;20040;-60
2023/03/21 01:47:57;;;;;;;7.78;5.13;;;;;;;;;;5026044;28;20501;-60
2023/03/21 01:50:30;;;;;;;9.75;5.15;;;;;;;;;;5025515;28;20038;-58
2023/03/21 01:53:15;;;;;;;8.88;5.22;;;;;;;;;;5009060;28;20041;-56
2023/03/21 01:55:41;;;;;;;8.13;5.03;;;;;;;;;;5041208;28;20042;-54
2023/03/21 01:58:17;;;;;;;5.95;4.68;;;;;;;;;;5024954;28;20033;-55
2023/03/21 02:01:03;;;;;;;7.35;5.07;;;;;;;;;;5023790;28;20061;-54
2023/03/21 02:03:49;;;;;;;6.30;5.05;;;;;;;;;;5025026;28;20030;-58
2023/03/21 02:06:30;;;;;;;8.55;4.93;;;;;;;;;;5025976;28;20087;-59
2023/03/21 02:09:03;;;;;;;9.50;4.85;;;;;;;;;;5011096;28;20025;-58
2023/03/21 02:11:31;;;;;;;6.75;4.90;;;;;;;;;;5040597;28;20066;-55
2023/03/21 02:13:56;;;;;;;;;;;;;;;;;;5026584;28;20033;-57
2023/03/21 02:16:36;;;;;;;7.38;4.70;;;;;;;;;;5025170;28;19970;-60
2023/03/21 02:19:09;;;;;;;10.48;4.25;;;;;;;;;;5026384;28;20120;-57
2023/03/21 02:21:35;;;;;;;7.15;4.15;;;;;;;;;;5025857;28;20033;-58
2023/03/21 02:24:24;;;;;;;10.60;3.85;;;;;;;;;;5026408;28;20037;-56
2023/03/21 02:27:08;;;;;;;6.10;4.20;;;;;;;;;;5039958;28;20041;-56
2023/03/21 02:29:48;;;;;;;8.07;5.45;;;;;;;;;;5023048;28;20032;-55
2023/03/21 02:32:22;;;;;;;9.60;5.40;;;;;;;;;;5015159;28;20037;-53
2023/03/21 02:34:52;;;;;;;7.65;4.88;;;;;;;;;;5032977;28;20057;-58
2023/03/21 02:37:22;;;;;;;6.78;4.90;;;;;;;;;;5028997;28;20061;-54
2023/03/21 02:39:58;;;;;;;8.82;5.60;;;;;;;;;;5023172;28;20040;-56
2023/03/21 02:42:30;;;;;;;8.93;5.40;;;;;;;;;;5024336;28;20045;-58
2023/03/21 02:45:02;;;;;;;7.78;5.32;;;;;;;;;;5022528;28;20037;-60
2023/03/21 02:47:41;;;;;;;9.07;5.43;;;;;;;;;;5021754;28;20030;-58
2023/03/21 02:50:10;;;;;;;9.00;5.43;;;;;;;;;;5022706;28;20049;-54
2023/03/21 02:52:37;;;;;;;6.95;4.55;;;;;;;;;;5021632;28;20482;-56
2023/03/21 02:55:03;;;;;;;8.55;5.22;;;;;;;;;;5021845;28;20033;-57
2023/03/21 02:57:33;;;;;;;6.55;4.47;;;;;;;;;;5022103;28;20120;-55
2023/03/21 03:00:00;;;;;;;;;;;;;;;;;;5024342;28;20488;-52
2023/03/21 03:02:32;;;;;;;7.93;4.60;;;;;;;;;;5023950;28;19967;-51
2023/03/21 03:04:59;;;;;;;7.03;4.80;;;;;;;;;;5040131;28;20167;-58
2023/03/21 03:07:37;;;;;;;7.00;4.25;;;;;;;;;;5023301;28;20087;-56
2023/03/21 03:10:05;;;;;;;7.05;4.53;;;;;;;;;;5024591;28;20070;-57
2023/03/21 03:12:36;;;;;;;9.27;4.55;;;;;;;;;;5023818;28;20021;-54
2023/03/21 03:15:03;;;;;;;9.45;4.90;;;;;;;;;;5042032;28;20497;-57
2023/03/21 03:17:30;;;;;;;8.10;5.20;;;;;;;;;;5023114;28;20036;-58
2023/03/21 03:20:17;;;;;;;7.90;4.88;;;;;;;;;;5024043;28;20048;-55
2023/03/21 03:22:47;;;;;;;8.52;4.80;;;;;;;;;;5011240;28;20029;-55
2023/03/21 03:25:17;;;;;;;7.68;4.55;;;;;;;;;;5024091;28;20033;-53
2023/03/21 03:27:43;;;;;;;8.30;5.13;;;;;;;;;;5016299;28;20040;-57
2023/03/21 03:30:10;;;;;;;6.60;4.57;;;;;;;;;;5024063;28;20029;-57
2023/03/21 03:32:47;;;;;;;7.97;4.80;;;;;;;;;;5022039;28;20775;-57
2023/03/21 03:35:14;;;;;;;7.40;4.63;;;;;;;;;;5032816;28;20045;-53
2023/03/21 03:37:41;;;;;;;7.35;4.80;;;;;;;;;;5022683;28;20587;-56
2023/03/21 03:40:07;;;;;;;8.55;4.55;;;;;;;;;;5022884;28;20038;-57
2023/03/21 03:42:35;;;;;;;5.95;4.40;;;;;;;;;;5023837;28;20025;-59
2023/03/21 03:45:11;;;;;;;6.40;4.53;;;;;;;;;;5029434;28;20041;-60
2023/03/21 03:47:48;;;;;;;6.03;4.20;;;;;;;;;;5022300;28;20517;-57
2023/03/21 03:50:25;;;;;;;8.77;4.70;;;;;;;;;;5021593;28;20036;-58
2023/03/21 03:52:52;;;;;;;9.70;5.13;;;;;;;;;;5020856;28;20813;-59
2023/03/21 03:55:20;;;;;;;9.95;5.47;;;;;;;;;;5039675;28;20551;-56
2023/03/21 03:57:48;;;;;;;9.65;4.72;;;;;;;;;;5021386;28;20053;-55
2023/03/21 04:00:15;;;;;;;9.30;4.75;;;;;;;;;;5022587;28;20041;-55
2023/03/21 04:02:44;;;;;;;6.93;4.43;;;;;;;;;;5024102;28;20100;-54
2023/03/21 04:05:12;;;;;;;8.90;4.70;;;;;;;;;;5029822;28;20068;-56
2023/03/21 04:07:37;;;;;;;9.23;5.25;;;;;;;;;;5024165;28;20033;-57
2023/03/21 04:10:03;;;;;;;9.38;4.90;;;;;;;;;;5024731;28;20033;-59
2023/03/21 04:12:36;;;;;;;10.25;5.15;;;;;;;;;;5025640;28;20538;-57
2023/03/21 04:15:21;;;;;;;7.57;4.70;;;;;;;;;;5019431;28;21017;-61
2023/03/21 04:17:52;;;;;;;6.82;4.53;;;;;;;;;;5022148;28;20041;-56
2023/03/21 04:20:17;;;;;;;5.82;4.20;;;;;;;;;;5022022;28;20040;-57
2023/03/21 04:22:44;;;;;;;7.90;4.60;;;;;;;;;;5021511;28;20045;-57
2023/03/21 04:25:09;;;;;;;7.68;4.40;;;;;;;;;;5026289;28;20179;-59
2023/03/21 04:27:35;;;;;;;6.85;4.65;;;;;;;;;;5024987;28;20033;-59
2023/03/21 04:30:23;;;;;;;10.05;4.85;;;;;;;;;;5023107;28;20041;-56
2023/03/21 04:33:09;;;;;;;8.63;4.65;;;;;;;;;;5020568;28;20056;-56
2023/03/21 04:35:35;;;;;;;11.27;4.70;;;;;;;;;;5022414;28;20033;-52
2023/03/21 04:38:01;;;;;;;13.45;5.70;;;;;;;;;;5020217;28;20036;-54
2023/03/21 04:40:26;;;;;;;12.45;5.93;;;;;;;;;;5024083;28;20033;-56
2023/03/21 04:42:54;;;;;;;12.27;5.57;;;;;;;;;;5011426;28;20538;-61
2023/03/21 04:45:19;;;;;;;9.35;4.60;;;;;;;;;;5021170;28;20136;-57
2023/03/21 04:47:45;;;;;;;7.18;4.45;;;;;;;;;;5021252;28;20084;-53
2023/03/21 04:50:11;;;;;;;7.25;4.25;;;;;;;;;;5023882;28;20034;-57
2023/03/21 04:52:37;;;;;;;7.53;4.88;;;;;;;;;;5038104;28;20694;-57
2023/03/21 04:55:03;;;;;;;10.20;4.55;;;;;;;;;;5023212;28;20103;-56
2023/03/21 04:57:28;;;;;;;7.32;4.00;;;;;;;;;;5026169;28;20037;-57
2023/03/21 04:59:54;;;;;;;9.90;4.93;;;;;;;;;;5022421;28;20037;-53
2023/03/21 05:02:20;;;;;;;6.55;4.30;;;;;;;;;;5012416;28;20393;-56
2023/03/21 05:04:45;;;;;;;9.85;4.15;;;;;;;;;;5004444;28;20041;-52
2023/03/21 05:07:11;;;;;;;6.35;4.18;;;;;;;;;;5020844;28;20037;-54
2023/03/21 05:09:36;;;;;;;8.07;4.45;;;;;;;;;;5019412;28;20026;-60
2023/03/21 05:12:02;;;;;;;9.38;4.50;;;;;;;;;;5022881;28;20045;-59
2023/03/21 05:14:29;;;;;;;;;;;;;;;;;;5012054;28;20030;-52
2023/03/21 05:16:56;;;;;;;7.68;5.55;;;;;;;;;;5022163;28;20350;-57
2023/03/21 05:19:24;;;;;;;10.38;6.15;;;;;;;;;;5024849;28;20025;-56
2023/03/21 05:21:50;;;;;;;12.00;6.38;;;;;;;;;;5043220;28;20064;-58
2023/03/21 05:24:20;;;;;;;11.80;6.28;;;;;;;;;;5026275;28;20033;-62
2023/03/21 05:26:49;;;;;;;11.63;7.03;;;;;;;;;;5028320;28;20100;-56
2023/03/21 05:29:16;;;;;;;13.45;6.70;;;;;;;;;;5019992;28;20049;-53
2023/03/21 05:31:44;;;;;;;9.55;6.28;;;;;;;;;;5034643;28;20033;-57
2023/03/21 05:34:12;;;;;;;10.05;6.07;;;;;;;;;;5031803;28;20044;-59
2023/03/21 05:36:38;;;;;;;8.45;5.85;;;;;;;;;;5028203;28;20139;-58
2023/03/21 05:39:06;;;;;;;9.77;5.82;;;;;;;;;;5028208;28;20017;-58
2023/03/21 05:41:35;;;;;;;8.27;5.55;;;;;;;;;;5026744;28;20031;-59
2023/03/21 05:44:02;;;;;;;;;;;;;;;;;;5027552;28;20041;-57
2023/03/21 05:46:28;;;;;;;7.80;4.77;;;;;;;;;;5026206;28;19917;-55
2023/03/21 05:48:53;;;;;;;7.20;4.80;;;;;;;;;;5022397;28;20273;-62
2023/03/21 05:51:20;;;;;;;6.88;4.75;;;;;;;;;;5023931;28;20030;-56
2023/03/21 05:53:45;;;;;;;9.05;4.82;;;;;;;;;;5025838;28;20529;-58
2023/03/21 05:56:13;;;;;;;6.63;4.68;;;;;;;;;;5034846;28;20041;-55
2023/03/21 05:58:52;;;;;;;10.10;5.25;;;;;;;;;;5023125;28;20029;-57
2023/03/21 06:01:18;;;;;;;9.43;5.00;;;;;;;;;;5025184;28;20051;-56
2023/03/21 06:03:51;;;;;;;8.98;4.90;;;;;;;;;;5023075;28;20060;-56
2023/03/21 06:06:22;;;;;;;8.38;5.15;;;;;;;;;;5024431;28;20152;-59
2023/03/21 06:08:55;;;;;;;9.85;5.28;;;;;;;;;;5018374;28;20269;-58
2023/03/21 06:11:23;;;;;;;8.02;5.13;;;;;;;;;;5018346;28;20029;-60
2023/03/21 06:13:52;;;;;;;7.70;5.03;;;;;;;;;;5028414;28;20029;-58
2023/03/21 06:16:20;;;;;;;11.15;5.50;;;;;;;;;;5020302;28;20466;-57
2023/03/21 06:18:46;;;;;;;8.73;5.05;;;;;;;;;;5028020;28;20068;-59
2023/03/21 06:21:31;;;;;;;6.22;4.35;;;;;;;;;;5015476;28;20053;-57
2023/03/21 06:23:57;;;;;;;8.68;5.32;;;;;;;;;;5026288;28;20029;-57
2023/03/21 06:26:22;;;;;;;8.90;5.72;;;;;;;;;;5024003;28;20029;-60
2023/03/21 06:28:49;;;;;;;12.00;6.00;;;;;;;;;;5024993;28;20033;-58
2023/03/21 06:31:14;;;;;;;10.52;7.20;;;;;;;;;;5022809;28;20079;-56
2023/03/21 06:33:40;;;;;;;13.73;6.75;;;;;;;;;;5020917;28;20038;-57
2023/03/21 06:36:05;;;;;;;10.70;7.40;;;;;;;;;;5016923;28;20095;-58
2023/03/21 06:38:31;;;;;;;10.60;6.93;;;;;;;;;;5026602;28;20305;-58
2023/03/21 06:40:57;;;;;;;8.25;5.88;;;;;;;;;;4982005;28;20072;-60
2023/03/21 06:43:24;;;;;;;11.68;6.20;;;;;;;;;;5024161;28;20079;-61
2023/03/21 06:45:50;;;;;;;8.88;5.78;;;;;;;;;;5018700;28;20044;-54
2023/03/21 06:48:15;;;;;;;11.43;7.20;;;;;;;;;;5020986;28;20051;-56
2023/03/21 06:50:47;;;;;;;10.23;7.57;;;;;;;;;;5014076;28;20061;-56
2023/03/21 06:53:13;;;;;;;14.47;6.47;;;;;;;;;;5020037;28;20041;-54
2023/03/21 06:56:14;;;;;;;13.73;6.10;;;;;;;;;;5018819;28;20286;-54
2023/03/21 06:58:41;;;;;;;9.50;5.80;;;;;;;;;;5024442;28;20029;-57
2023/03/21 07:01:13;;;;;;;12.65;5.90;;;;;;;;;;5024555;28;20163;-59
2023/03/21 07:03:49;;;;;;;12.13;6.30;;;;;;;;;;5042499;28;20029;-61
2023/03/21 07:06:15;;;;;;;12.85;6.65;;;;;;;;;;5025647;28;20099;-57
2023/03/21 07:08:41;;;;;;;12.43;5.97;;;;;;;;;;5027425;28;20549;-57
2023/03/21 07:11:07;;;;;;;10.13;6.05;;;;;;;;;;5030648;28;20033;-55
2023/03/21 07:13:32;;;;;;;9.50;6.20;;;;;;;;;;5028878;28;20057;-57
2023/03/21 07:16:02;;;;;;;7.63;5.78;;;;;;;;;;5013203;28;20048;-61
2023/03/21 07:18:27;;;;;;;8.50;5.15;;;;;;;;;;5026270;28;20025;-61
2023/03/21 07:20:53;;;;;;;8.75;5.47;;;;;;;;;;5027242;28;20098;-56
2023/03/21 07:23:19;;;;;;;9.50;5.40;;;;;;;;;;5029382;28;20120;-57
2023/03/21 07:25:46;;;;;;;12.40;6.25;;;;;;;;;;5032511;28;20128;-53
2023/03/21 07:28:12;;;;;;;10.30;6.28;;;;;;;;;;5026997;28;20040;-56
2023/03/21 07:30:37;;;;;;;12.77;7.28;;;;;;;;;;5024890;28;20029;-53
2023/03/21 07:33:03;;;;;;;8.98;6.25;;;;;;;;;;5026766;28;20083;-55
2023/03/21 07:35:28;;;;;;;11.88;6.22;;;;;;;;;;5026356;28;20592;-55
2023/03/21 07:37:54;;;;;;;7.75;5.72;;;;;;;;;;5014505;28;20033;-59
2023/03/21 07:40:19;;;;;;;10.02;5.05;;;;;;;;;;5012577;28;20474;-54
2023/03/21 07:42:47;;;;;;;8.63;5.25;;;;;;;;;;5026918;28;20040;-55
2023/03/21 07:45:20;;;;;;;8.10;4.47;;;;;;;;;;5029686;28;20041;-54
2023/03/21 07:47:46;;;;;;;7.65;4.18;;;;;;;;;;5039030;28;20108;-55
2023/03/21 07:50:11;;;;;;;6.90;4.20;;;;;;;;;;5040938;28;20140;-54
2023/03/21 07:52:37;;;;;;;7.60;4.40;;;;;;;;;;5026118;28;20041;-57
2023/03/21 07:55:02;;;;;;;6.18;4.38;;;;;;;;;;5028563;28;20057;-60
2023/03/21 07:57:27;;;;;;;6.22;4.00;;;;;;;;;;5027095;28;20033;-58
2023/03/21 07:59:53;;;;;;;6.78;3.70;;;;;;;;;;5020065;28;20380;-56
2023/03/21 08:02:18;;;;;;;7.63;4.13;;;;;;;;;;5026166;28;20124;-54
2023/03/21 08:04:44;;;;;;;6.82;3.50;;;;;;;;;;5024135;28;20115;-56
2023/03/21 08:07:10;;;;;;;5.60;3.60;;;;;;;;;;5024934;28;20052;-57
2023/03/21 08:09:36;;;;;;;7.53;3.55;;;;;;;;;;5024796;28;20132;-57
2023/03/21 08:12:01;;;;;;;5.80;3.53;;;;;;;;;;5022357;28;20469;-57
2023/03/21 08:14:27;;;;;;;6.25;3.58;;;;;;;;;;5023910;28;20041;-61
2023/03/21 08:16:52;;;;;;;5.75;3.45;;;;;;;;;;5024784;28;20029;-54
2023/03/21 08:19:20;;;;;;;6.20;3.50;;;;;;;;;;5024816;28;20395;-58
2023/03/21 08:21:46;;;;;;;5.85;3.15;;;;;;;;;;5026265;28;20033;-57
2023/03/21 08:24:11;;;;;;;6.72;3.20;;;;;;;;;;5022592;28;20025;-59
2023/03/21 08:26:37;;;;;;;6.18;3.55;;;;;;;;;;5025133;28;20492;-53
2023/03/21 08:29:02;;;;;;;5.53;3.28;;;;;;;;;;5027558;28;20043;-58
2023/03/21 08:31:27;;;;;;;5.97;3.08;;;;;;;;;;5022174;28;20471;-58
2023/03/21 08:33:54;;;;;;;6.05;3.45;;;;;;;;;;5022082;28;20021;-56
2023/03/21 08:36:23;;;;;;;5.75;3.10;;;;;;;;;;5022518;28;20048;-58
2023/03/21 08:38:52;;;;;;;6.88;3.40;;;;;;;;;;5037483;28;20167;-60
2023/03/21 08:41:20;;;;;;;5.25;3.28;;;;;;;;;;5023865;28;20037;-60
2023/03/21 08:43:46;;;;;;;6.07;3.30;;;;;;;;;;5025194;28;20029;-59
2023/03/21 08:46:11;;;;;;;5.93;3.20;;;;;;;;;;5025378;28;20047;-61
2023/03/21 08:48:37;;;;;;;7.00;3.72;;;;;;;;;;5023440;28;20461;-58
2023/03/21 08:51:03;;;;;;;4.95;3.00;;;;;;;;;;5024115;28;20029;-59
2023/03/21 08:53:28;;;;;;;5.75;2.80;;;;;;;;;;5024970;28;20053;-59
2023/03/21 08:55:53;;;;;;;3.92;2.67;;;;;;;;;;5024879;28;20091;-56
2023/03/21 08:58:19;;;;;;;5.40;3.15;;;;;;;;;;5025090;28;20075;-58
2023/03/21 09:00:45;;;;;;;6.03;3.00;;;;;;;;;;5025505;28;20029;-60
2023/03/21 09:03:10;;;;;;;6.60;3.35;;;;;;;;;;5025739;28;20034;-59
2023/03/21 09:05:35;;;;;;;4.65;2.78;;;;;;;;;;5024964;28;20033;-60
2023/03/21 09:08:02;;;;;;;5.78;2.88;;;;;;;;;;5025273;28;20088;-56
2023/03/21 09:10:27;;;;;;;7.32;3.58;;;;;;;;;;5025859;28;20400;-55
2023/03/21 09:12:53;;;;;;;5.30;3.03;;;;;;;;;;5023999;28;20025;-56
2023/03/21 09:15:20;;;;;;;5.95;2.90;;;;;;;;;;5022933;28;20189;-59
2023/03/21 09:17:48;;;;;;;6.47;3.50;;;;;;;;;;5023481;28;20083;-55
2023/03/21 09:20:24;;;;;;;3.95;2.85;;;;;;;;;;5023895;28;20041;-58
2023/03/21 09:22:51;;;;;;;5.10;2.97;;;;;;;;;;5024302;28;20033;-59
2023/03/21 09:25:17;;;;;;;5.47;3.17;;;;;;;;;;5025103;28;20034;-57
2023/03/21 09:27:46;;;;;;;5.93;2.90;;;;;;;;;;5026157;28;20505;-61
2023/03/21 09:30:13;;;;;;;6.45;2.80;;;;;;;;;;5022413;28;20735;-58
2023/03/21 09:32:38;;;;;;;5.93;3.03;;;;;;;;;;5024832;28;20139;-58
2023/03/21 09:35:04;;;;;;;7.55;3.10;;;;;;;;;;5023466;28;20602;-59
2023/03/21 09:37:31;;;;;;;5.25;2.90;;;;;;;;;;5019918;28;20033;-58
2023/03/21 09:39:57;;;;;;;4.75;2.53;;;;;;;;;;5023445;28;20040;-55
2023/03/21 09:42:33;;;;;;;4.72;2.58;;;;;;;;;;5027556;28;20045;-57
2023/03/21 09:45:17;;;;;;;4.88;2.63;;;;;;;;;;5030087;28;20043;-58
2023/03/21 09:47:55;;;;;;;5.18;2.70;;;;;;;;;;5018623;28;20026;-59
2023/03/21 09:50:34;;;;;;;4.25;2.30;;;;;;;;;;5025114;28;20029;-59
2023/03/21 09:52:59;;;;;;;4.15;2.42;;;;;;;;;;5023176;28;20029;-60
2023/03/21 09:55:36;;;;;;;4.05;2.42;;;;;;;;;;5023562;28;20045;-59
2023/03/21 09:58:03;;;;;;;6.03;2.42;;;;;;;;;;5022160;28;20079;-60
2023/03/21 10:00:33;;;;;;;4.70;2.45;;;;;;;;;;5012139;28;20447;-56
2023/03/21 10:03:05;;;;;;;5.05;2.60;;;;;;;;;;5023148;28;20025;-59
2023/03/21 10:05:33;;;;;;;4.00;2.00;;;;;;;;;;5024601;28;20037;-58
2023/03/21 10:08:12;;;;;;;4.75;2.00;;;;;;;;;;5027203;28;20157;-59
2023/03/21 10:10:46;;;;;;;3.50;2.28;;;;;;;;;;5027325;28;20029;-59
2023/03/21 10:13:18;;;;;;;3.70;2.20;;;;;;;;;;5027290;28;20461;-58
2023/03/21 10:15:43;;;;;;;6.45;2.65;;;;;;;;;;5033144;28;20539;-58
2023/03/21 10:18:17;;;;;;;4.13;2.30;;;;;;;;;;5026235;28;20485;-59
2023/03/21 10:20:43;;;;;;;3.85;2.22;;;;;;;;;;5027635;28;20100;-57
2023/03/21 10:23:12;;;;;;;5.07;2.13;;;;;;;;;;5025152;28;20144;-58
2023/03/21 10:25:51;;;;;;;3.25;2.00;;;;;;;;;;5027233;28;20148;-60
2023/03/21 10:28:19;;;;;;;3.83;2.20;;;;;;;;;;5024179;28;20040;-59
2023/03/21 10:30:46;;;;;;;5.25;2.05;;;;;;;;;;5028904;28;20044;-58
2023/03/21 10:33:12;;;;;;;;;;;;;;;;;;5026948;28;20025;-60
2023/03/21 10:35:38;;;;;;;7.57;2.27;;;;;;;;;;5028288;28;20278;-57
2023/03/21 10:38:05;;;;;;;4.80;2.10;;;;;;;;;;5025976;28;20407;-55
2023/03/21 10:40:31;;;;;;;3.55;2.20;;;;;;;;;;5027841;28;20480;-58
2023/03/21 10:43:14;;;;;;;5.57;2.40;;;;;;;;;;5026291;28;20116;-59
2023/03/21 10:45:39;;;;;;;3.70;2.08;;;;;;;;;;5026776;28;20037;-58
2023/03/21 10:48:06;;;;;;;3.90;2.20;;;;;;;;;;5025746;28;20048;-58
2023/03/21 10:50:31;;;;;;;3.40;1.95;;;;;;;;;;5025045;28;20026;-57
2023/03/21 10:52:59;;;;;;;4.80;2.25;;;;;;;;;;5027544;28;20045;-58
2023/03/21 10:55:27;;;;;;;3.65;2.10;;;;;;;;;;5024737;28;20041;-58
2023/03/21 10:58:07;;;;;;;4.70;2.10;;;;;;;;;;5025238;28;20037;-55
2023/03/21 11:00:40;;;;;;;3.83;1.70;;;;;;;;;;5024166;28;20569;-57
2023/03/21 11:03:06;;;;;;;3.60;2.00;;;;;;;;;;5026097;28;20037;-55
2023/03/21 11:05:41;;;;;;;3.45;2.10;;;;;;;;;;5025974;28;20120;-54
2023/03/21 11:08:14;;;;;;;2.92;1.83;;;;;;;;;;5026556;28;20034;-53
2023/03/21 11:11:00;;;;;;;3.50;2.00;;;;;;;;;;5026316;28;20068;-55
2023/03/21 11:13:31;;;;;;;2.77;1.90;;;;;;;;;;5026039;28;20039;-56
2023/03/21 11:16:02;;;;;;;5.70;2.13;;;;;;;;;;5027053;28;20132;-58
2023/03/21 11:18:30;;;;;;;4.35;2.20;;;;;;;;;;5025874;28;20064;-55
2023/03/21 11:20:57;;;;;;;4.05;1.90;;;;;;;;;;5023745;28;20034;-59
2023/03/21 11:23:27;;;;;;;5.63;2.20;;;;;;;;;;5025232;28;20029;-58
2023/03/21 11:25:52;;;;;;;3.80;2.00;;;;;;;;;;5026887;28;20045;-55
2023/03/21 11:28:20;;;;;;;3.78;1.98;;;;;;;;;;5026215;28;20028;-56
2023/03/21 11:30:56;;;;;;;4.60;2.03;;;;;;;;;;5027735;28;20199;-60
2023/03/21 11:33:25;;;;;;;3.72;2.35;;;;;;;;;;5026022;28;20517;-55
2023/03/21 11:36:01;;;;;;;4.47;2.10;;;;;;;;;;5026888;28;20049;-56
2023/03/21 11:38:30;;;;;;;6.03;2.13;;;;;;;;;;5025269;28;20048;-58
2023/03/21 11:40:57;;;;;;;3.42;2.20;;;;;;;;;;5024187;28;20068;-56
2023/03/21 11:43:52;;;;;;;3.90;2.20;;;;;;;;;;5023183;28;20064;-58
2023/03/21 11:46:21;;;;;;;3.65;2.10;;;;;;;;;;5021844;28;20053;-58
2023/03/21 11:48:49;;;;;;;3.90;1.95;;;;;;;;;;5025240;28;20034;-59
2023/03/21 11:51:17;;;;;;;4.07;2.00;;;;;;;;;;5025380;28;20052;-58
2023/03/21 11:53:56;;;;;;;5.00;2.00;;;;;;;;;;5023948;28;20030;-57
2023/03/21 11:56:24;;;;;;;4.63;2.10;;;;;;;;;;5024443;28;20110;-57
2023/03/21 11:59:02;;;;;;;6.80;2.20;;;;;;;;;;5026324;28;20382;-55
2023/03/21 12:01:27;;;;;;;3.67;2.30;;;;;;;;;;5025756;28;20123;-58
2023/03/21 12:03:53;;;;;;;4.68;2.28;;;;;;;;;;5024124;28;20038;-55
2023/03/21 12:06:21;;;;;;;4.63;2.25;;;;;;;;;;5009129;28;20025;-56
2023/03/21 12:08:58;;;;;;;3.15;2.00;;;;;;;;;;5026156;28;20034;-56
2023/03/21 12:11:24;;;;;;;3.33;1.75;;;;;;;;;;5026017;28;20095;-57
2023/03/21 12:14:12;;;;;;;3.23;1.80;;;;;;;;;;5024342;28;20097;-57
2023/03/21 12:16:51;;;;;;;5.45;2.22;;;;;;;;;;5024527;28;20453;-57
2023/03/21 12:19:20;;;;;;;3.28;2.03;;;;;;;;;;5025299;28;20029;-58
2023/03/21 12:21:55;;;;;;;3.42;1.92;;;;;;;;;;5024158;28;20033;-59
2023/03/21 12:24:32;;;;;;;3.22;1.90;;;;;;;;;;5025812;28;20124;-56
2023/03/21 12:27:10;;;;;;;4.30;1.85;;;;;;;;;;5024704;28;20037;-57
2023/03/21 12:29:45;;;;;;;2.88;1.85;;;;;;;;;;5023253;28;20081;-57
2023/03/21 12:32:16;;;;;;;4.45;2.00;;;;;;;;;;5023341;28;20059;-57
2023/03/21 12:34:42;;;;;;;3.35;1.92;;;;;;;;;;5022376;28;20033;-56
2023/03/21 12:37:13;;;;;;;6.20;2.38;;;;;;;;;;5030577;28;20115;-60
2023/03/21 12:39:39;;;;;;;4.55;2.05;;;;;;;;;;5023986;28;20041;-57
2023/03/21 12:42:25;;;;;;;3.80;2.00;;;;;;;;;;5025351;28;20047;-55
2023/03/21 12:44:53;;;;;;;4.18;1.90;;;;;;;;;;5023659;28;20144;-56
2023/03/21 12:47:24;;;;;;;4.28;2.10;;;;;;;;;;5025572;28;20136;-58
2023/03/21 12:49:52;;;;;;;3.10;2.10;;;;;;;;;;5024940;28;20143;-60
2023/03/21 12:52:18;;;;;;;5.80;2.45;;;;;;;;;;5013812;28;20037;-58
2023/03/21 12:54:55;;;;;;;4.68;2.13;;;;;;;;;;5026479;28;20083;-57
2023/03/21 12:57:44;;;;;;;4.82;2.20;;;;;;;;;;5032692;28;20041;-58
2023/03/21 13:00:14;;;;;;;4.55;2.25;;;;;;;;;;5023355;28;20128;-57
2023/03/21 13:02:40;;;;;;;4.03;2.33;;;;;;;;;;5025960;28;20038;-57
2023/03/21 13:05:06;;;;;;;5.13;2.40;;;;;;;;;;5021529;28;20124;-57
2023/03/21 13:07:40;;;;;;;8.88;2.35;;;;;;;;;;5021971;28;20035;-58
2023/03/21 13:10:12;;;;;;;4.93;2.42;;;;;;;;;;5023357;28;20037;-58
2023/03/21 13:12:49;;;;;;;6.35;2.20;;;;;;;;;;5024115;28;20033;-59
2023/03/21 13:15:14;;;;;;;4.05;2.42;;;;;;;;;;5027285;28;20045;-62
2023/03/21 13:17:49;;;;;;;5.47;2.90;;;;;;;;;;5022996;28;20433;-58
2023/03/21 13:20:36;;;;;;;8.65;2.92;;;;;;;;;;5021604;28;20057;-58
2023/03/21 13:23:03;;;;;;;4.75;2.58;;;;;;;;;;5023265;28;20068;-57
2023/03/21 13:25:32;;;;;;;6.70;2.40;;;;;;;;;;5022839;28;20044;-58
2023/03/21 13:28:01;;;;;;;4.35;2.40;;;;;;;;;;5023793;28;20064;-65
2023/03/21 13:30:27;;;;;;;5.43;2.50;;;;;;;;;;5021682;28;20082;-56
2023/03/21 13:33:13;;;;;;;4.60;2.43;;;;;;;;;;5022182;28;20034;-58
2023/03/21 13:35:41;;;;;;;4.25;2.38;;;;;;;;;;5026560;28;20508;-52
2023/03/21 13:38:18;;;;;;;5.93;2.63;;;;;;;;;;5021037;28;20038;-58
2023/03/21 13:40:47;;;;;;;5.57;2.50;;;;;;;;;;5024573;28;20530;-59
2023/03/21 13:43:32;;;;;;;3.70;2.25;;;;;;;;;;5021609;28;20029;-61
2023/03/21 13:46:04;;;;;;;5.80;2.47;;;;;;;;;;5026339;28;20061;-57
2023/03/21 13:48:31;;;;;;;4.35;2.38;;;;;;;;;;5026041;28;20033;-58
2023/03/21 13:51:03;;;;;;;3.22;2.10;;;;;;;;;;5026336;28;20513;-55
2023/03/21 13:53:29;;;;;;;6.57;2.40;;;;;;;;;;5025771;28;20037;-55
2023/03/21 13:55:59;;;;;;;3.25;2.10;;;;;;;;;;5026902;28;20123;-57
2023/03/21 13:58:48;;;;;;;3.80;2.50;;;;;;;;;;5016170;28;20051;-57
2023/03/21 14:01:26;;;;;;;4.65;2.75;;;;;;;;;;5026565;28;20041;-57
2023/03/21 14:04:17;;;;;;;6.65;2.80;;;;;;;;;;5030154;28;20026;-58
2023/03/21 14:07:09;;;;;;;4.93;2.50;;;;;;;;;;5022094;28;20037;-56
2023/03/21 14:09:36;;;;;;;4.28;2.60;;;;;;;;;;5008637;28;20107;-58
2023/03/21 14:12:02;;;;;;;5.32;2.88;;;;;;;;;;5026846;28;20471;-58
2023/03/21 14:14:34;;;;;;;5.67;2.80;;;;;;;;;;5026370;28;20029;-58
2023/03/21 14:16:59;;;;;;;5.68;2.83;;;;;;;;;;5024910;28;20572;-56
2023/03/21 14:19:29;;;;;;;5.75;2.70;;;;;;;;;;5025681;28;20040;-56
2023/03/21 14:21:55;;;;;;;4.40;2.60;;;;;;;;;;5022840;28;20461;-57
2023/03/21 14:24:21;;;;;;;8.52;2.67;;;;;;;;;;5026775;28;20254;-53
2023/03/21 14:26:48;;;;;;;4.57;2.90;;;;;;;;;;5026494;28;20374;-57
2023/03/21 14:29:17;;;;;;;6.85;3.00;;;;;;;;;;5025534;28;20022;-57
2023/03/21 14:31:44;;;;;;;5.35;2.60;;;;;;;;;;5023593;28;20067;-57
2023/03/21 14:34:09;;;;;;;5.20;2.67;;;;;;;;;;5025328;28;20022;-59
2023/03/21 14:36:37;;;;;;;4.82;2.92;;;;;;;;;;5026436;28;20057;-59
2023/03/21 14:39:03;;;;;;;3.72;2.40;;;;;;;;;;5025711;28;20033;-62
2023/03/21 14:41:29;;;;;;;5.32;2.50;;;;;;;;;;5023638;28;20041;-58
2023/03/21 14:44:13;;;;;;;5.25;2.78;;;;;;;;;;5027801;28;20029;-57
2023/03/21 14:46:40;;;;;;;4.40;2.63;;;;;;;;;;5026080;28;20033;-60
2023/03/21 14:49:10;;;;;;;5.35;2.50;;;;;;;;;;5025400;28;20049;-57
2023/03/21 14:51:35;;;;;;;6.18;2.60;;;;;;;;;;5023209;28;20061;-59
2023/03/21 14:54:00;;;;;;;5.93;2.80;;;;;;;;;;5025895;28;20057;-58
2023/03/21 14:56:26;;;;;;;5.35;2.72;;;;;;;;;;5025320;28;20045;-57